Time;durP1;ratioP1;P1;durP2;ratioP2;P2;SDS_P1;SDS_P2;PMS_P1;PMS_P2;Temp;Humidity;BMP_temperature;BMP_pressure;BME280_temperature;BME280_humidity;BME280_pressure;Samples;Min_cycle;Max_cycle;Signal;HPM_P1;HPM_P2
2022/05/29 00:02:35;;;;;;;2.12;0.60;;;;;;;14.16;48.83;99633.78;4463596;32;35996;-79
2022/05/29 00:05:21;;;;;;;3.95;0.77;;;;;;;14.24;48.74;99627.41;4450633;32;34861;-79
2022/05/29 00:08:10;;;;;;;2.05;0.60;;;;;;;14.20;48.73;99620.94;4463666;32;33955;-79
2022/05/29 00:10:58;;;;;;;3.97;0.80;;;;;;;14.25;47.71;99626.25;4449175;32;35170;-79
2022/05/29 00:13:45;;;;;;;3.22;0.75;;;;;;;14.36;47.77;99621.94;4453869;32;34561;-79
2022/05/29 00:16:32;;;;;;;5.40;0.62;;;;;;;14.28;48.24;99622.81;4437449;32;34532;-79
2022/05/29 00:19:18;;;;;;;2.15;0.93;;;;;;;14.25;48.54;99617.19;4448296;32;34207;-79
2022/05/29 00:22:07;;;;;;;0.82;0.50;;;;;;;14.33;49.06;99617.09;4441215;32;35649;-79
2022/05/29 00:24:53;;;;;;;2.28;0.60;;;;;;;14.39;47.79;99617.72;4438794;32;35975;-80
2022/05/29 00:27:40;;;;;;;2.67;0.90;;;;;;;13.67;48.81;99612.19;4450403;32;35533;-80
2022/05/29 00:30:27;;;;;;;1.62;0.70;;;;;;;14.09;48.63;99614.22;4450487;32;34095;-79
2022/05/29 00:33:18;;;;;;;2.90;1.00;;;;;;;13.25;50.51;99617.56;4448011;32;34804;-80
2022/05/29 00:36:04;;;;;;;2.28;0.77;;;;;;;13.88;48.99;99603.97;4457135;32;33730;-80
2022/05/29 00:38:50;;;;;;;1.17;0.55;;;;;;;14.07;48.89;99605.47;4443960;32;35258;-79
2022/05/29 00:41:38;;;;;;;2.42;0.70;;;;;;;14.16;48.47;99593.25;4447528;32;33730;-79
2022/05/29 00:44:27;;;;;;;1.73;0.80;;;;;;;14.11;48.02;99589.87;4426270;32;35581;-80
2022/05/29 00:47:21;;;;;;;3.50;0.73;;;;;;;14.23;47.83;99592.72;4443238;32;35089;-79
2022/05/29 00:50:08;;;;;;;2.25;0.70;;;;;;;14.17;48.87;99594.03;4448953;32;34240;-79
2022/05/29 00:52:54;;;;;;;1.45;0.57;;;;;;;14.05;48.43;99586.53;4441812;32;34072;-79
2022/05/29 00:55:49;;;;;;;3.03;0.95;;;;;;;14.02;48.49;99580.88;4451149;32;35620;-79
2022/05/29 00:58:38;;;;;;;2.95;0.60;;;;;;;14.10;48.38;99580.00;4443913;32;36016;-79
2022/05/29 01:01:28;;;;;;;4.12;0.55;;;;;;;13.95;48.77;99573.16;4441591;32;32948;-79
2022/05/29 01:04:15;;;;;;;2.92;0.70;;;;;;;14.02;49.52;99575.38;4435216;32;34279;-79
2022/05/29 01:07:06;;;;;;;3.37;1.00;;;;;;;13.43;51.41;99577.03;4449921;32;34513;-79
2022/05/29 01:09:53;;;;;;;2.17;0.70;;;;;;;12.99;52.27;99572.81;4448247;32;35067;-79
2022/05/29 01:12:49;;;;;;;1.45;0.70;;;;;;;13.37;51.37;99561.81;4450412;32;34169;-79
2022/05/29 01:15:55;;;;;;;1.27;0.57;;;;;;;10.79;59.81;99573.97;4462285;32;34160;-79
2022/05/29 01:18:54;;;;;;;3.40;0.80;;;;;;;10.92;60.68;99569.50;4464740;32;34695;-79
2022/05/29 01:21:50;;;;;;;4.28;0.73;;;;;;;10.80;61.61;99572.84;4453873;32;35609;-79
2022/05/29 01:24:52;;;;;;;4.22;0.70;;;;;;;11.68;58.87;99572.84;4463551;32;34694;-79
2022/05/29 01:27:49;;;;;;;3.20;0.90;;;;;;;11.56;58.44;99569.94;4460812;32;34958;-79
2022/05/29 01:30:46;;;;;;;2.20;0.70;;;;;;;12.17;56.55;99574.72;4465070;32;34720;-79
2022/05/29 01:33:58;;;;;;;3.53;0.68;;;;;;;12.13;56.41;99567.13;4463216;32;34896;-79
2022/05/29 01:36:49;;;;;;;3.60;0.95;;;;;;;12.36;56.06;99577.94;4463312;32;35046;-79
2022/05/29 01:39:41;;;;;;;2.92;1.52;;;;;;;12.56;54.70;99582.78;4464533;32;34139;-79
2022/05/29 01:42:43;;;;;;;2.83;0.80;;;;;;;12.68;54.44;99578.53;4461608;32;34079;-79
2022/05/29 01:45:53;;;;;;;3.67;0.90;;;;;;;13.35;53.04;99582.56;4464166;32;34976;-79
2022/05/29 01:48:54;;;;;;;1.92;0.62;;;;;;;13.31;53.34;99574.16;4457006;32;34365;-79
2022/05/29 01:51:48;;;;;;;1.98;0.75;;;;;;;13.35;52.97;99572.38;4466687;32;34561;-80
2022/05/29 01:55:03;;;;;;;2.30;0.80;;;;;;;13.48;53.36;99579.59;4467508;32;35211;-79
2022/05/29 01:57:52;;;;;;;3.33;0.60;;;;;;;12.85;54.55;99578.50;4468470;32;34428;-79
2022/05/29 02:00:39;;;;;;;1.75;0.80;;;;;;;13.43;53.95;99577.03;4466264;32;34713;-79
2022/05/29 02:03:34;;;;;;;2.53;0.80;;;;;;;13.73;53.06;99572.31;4469009;32;34171;-80
2022/05/29 02:06:26;;;;;;;1.30;0.60;;;;;;;12.98;54.44;99571.22;4459518;32;34903;-79
2022/05/29 02:09:13;;;;;;;2.25;0.60;;;;;;;12.65;54.95;99576.47;4463927;32;36183;-79
2022/05/29 02:12:01;;;;;;;2.03;0.60;;;;;;;12.65;55.43;99571.75;4465723;32;35485;-79
2022/05/29 02:15:09;;;;;;;1.42;0.70;;;;;;;12.85;54.71;99559.25;4462203;32;34107;-79
2022/05/29 02:17:57;;;;;;;1.52;0.68;;;;;;;12.76;55.49;99558.47;4471304;32;34584;-79
2022/05/29 02:20:48;;;;;;;4.07;1.48;;;;;;;12.58;55.80;99564.03;4463177;32;36008;-79
2022/05/29 02:23:38;;;;;;;2.10;0.70;;;;;;;12.81;54.79;99555.56;4458145;32;34150;-79
2022/05/29 02:26:28;;;;;;;1.33;0.73;;;;;;;13.10;53.99;99548.50;4465540;32;34099;-79
2022/05/29 02:29:15;;;;;;;3.15;0.50;;;;;;;13.30;53.16;99550.56;4461647;32;34144;-79
2022/05/29 02:32:34;;;;;;;2.70;0.70;;;;;;;13.01;54.12;99543.84;4452078;32;37276;-79
2022/05/29 02:35:43;;;;;;;3.10;0.90;;;;;;;13.34;53.93;99551.47;4452131;32;34109;-79
2022/05/29 02:38:42;;;;;;;2.22;0.57;;;;;;;13.82;52.69;99554.94;4463848;32;33498;-79
2022/05/29 02:41:54;;;;;;;1.50;0.68;;;;;;;13.92;51.14;99549.84;4459331;32;34849;-79
2022/05/29 02:44:59;;;;;;;;;;;;;;;13.75;52.86;99543.66;4466129;32;35084;-79
2022/05/29 02:48:33;;;;;;;1.67;0.57;;;;;;;13.88;51.95;99543.37;4462500;32;34385;-79
2022/05/29 02:51:35;;;;;;;5.60;1.75;;;;;;;12.36;55.57;99544.97;4462021;32;35543;-79
2022/05/29 02:54:25;;;;;;;2.85;0.52;;;;;;;11.15;60.07;99540.91;4462661;32;34678;-79
2022/05/29 02:57:11;;;;;;;2.03;0.88;;;;;;;11.94;57.67;99533.66;4462955;32;35028;-79
2022/05/29 03:00:03;;;;;;;3.40;0.70;;;;;;;11.26;60.17;99535.94;4465361;32;34764;-79
2022/05/29 03:03:21;;;;;;;1.45;0.75;;;;;;;10.85;61.31;99544.50;4462673;32;32809;-79
2022/05/29 03:07:08;;;;;;;1.10;0.70;;;;;;;10.34;63.41;99550.16;4463407;32;35677;-79
2022/05/29 03:10:10;;;;;;;4.45;0.82;;;;;;;10.26;64.95;99537.16;4381754;32;34594;-79
2022/05/29 03:13:03;;;;;;;2.07;0.67;;;;;;;10.71;63.79;99530.88;4462874;32;34356;-79
2022/05/29 03:16:04;;;;;;;1.40;0.75;;;;;;;11.52;60.28;99522.28;4462963;32;34225;-79
2022/05/29 03:18:59;;;;;;;3.28;0.85;;;;;;;11.67;59.99;99518.28;4464854;32;34697;-79
2022/05/29 03:21:50;;;;;;;1.65;0.60;;;;;;;11.53;59.77;99514.88;4462866;32;35057;-79
2022/05/29 03:24:45;;;;;;;0.98;0.60;;;;;;;11.05;61.52;99508.28;4463057;32;34650;-79
2022/05/29 03:27:37;;;;;;;1.62;0.68;;;;;;;11.93;58.63;99504.63;4463960;32;34221;-79
2022/05/29 03:30:31;;;;;;;1.27;0.60;;;;;;;11.58;59.58;99510.03;4449987;32;34750;-79
2022/05/29 03:33:18;;;;;;;1.90;0.70;;;;;;;10.91;61.03;99516.62;4452177;32;35184;-79
2022/05/29 03:36:09;;;;;;;2.58;0.70;;;;;;;10.55;61.90;99514.03;4461927;32;34209;-79
2022/05/29 03:38:59;;;;;;;1.40;0.50;;;;;;;10.98;60.01;99508.75;4458749;32;34120;-79
2022/05/29 03:41:48;;;;;;;2.55;0.60;;;;;;;11.78;56.75;99503.13;4461545;32;32491;-79
2022/05/29 03:44:35;;;;;;;2.25;0.60;;;;;;;12.38;54.90;99498.75;4450815;32;34479;-79
2022/05/29 03:47:22;;;;;;;1.98;1.00;;;;;;;11.99;53.92;99497.81;4463718;32;34578;-79
2022/05/29 03:50:13;;;;;;;1.73;0.70;;;;;;;12.68;53.34;99502.38;4462379;32;34884;-79
2022/05/29 03:53:00;;;;;;;2.37;1.00;;;;;;;12.55;52.60;99512.47;4462489;32;36039;-79
2022/05/29 03:55:47;;;;;;;1.85;0.82;;;;;;;13.31;51.97;99510.88;4462282;32;34595;-79
2022/05/29 03:58:33;;;;;;;3.55;0.62;;;;;;;13.53;51.36;99508.97;4464904;32;33420;-79
2022/05/29 04:01:20;;;;;;;1.27;0.57;;;;;;;13.67;51.32;99512.28;4460848;32;34683;-79
2022/05/29 04:04:08;;;;;;;3.53;0.85;;;;;;;13.69;49.39;99510.00;4461969;32;35543;-79
2022/05/29 04:06:54;;;;;;;1.23;0.45;;;;;;;13.92;51.18;99513.25;4460557;32;35056;-79
2022/05/29 04:12:45;;;;;;;1.70;0.68;;;;;;;14.16;50.70;99507.03;4460871;32;35119;-79
2022/05/29 04:15:33;;;;;;;2.35;0.73;;;;;;;14.02;51.96;99512.00;4470099;32;35509;-79
2022/05/29 04:18:22;;;;;;;4.37;0.65;;;;;;;13.99;52.01;99504.44;4449106;32;34906;-79
2022/05/29 04:21:13;;;;;;;1.98;0.77;;;;;;;13.97;49.93;99503.94;4459168;32;34981;-79
2022/05/29 04:24:06;;;;;;;1.60;0.73;;;;;;;13.59;51.70;99502.12;4462263;32;34146;-79
2022/05/29 04:26:54;;;;;;;1.65;0.65;;;;;;;13.71;52.45;99493.94;4460764;32;34098;-79
2022/05/29 04:29:40;;;;;;;1.33;0.52;;;;;;;13.97;51.00;99504.75;4463999;32;35931;-79
2022/05/29 04:35:38;;;;;;;2.80;0.57;;;;;;;14.60;49.56;99507.44;4464586;32;32925;-79
2022/05/29 04:38:27;;;;;;;1.87;0.45;;;;;;;14.58;49.22;99499.50;4464271;32;34217;-79
2022/05/29 04:41:16;;;;;;;1.12;0.50;;;;;;;14.68;49.77;99495.50;4459793;32;34311;-79
2022/05/29 04:44:03;;;;;;;2.15;0.57;;;;;;;14.67;50.26;99501.38;4446172;32;34560;-79
2022/05/29 04:46:53;;;;;;;3.35;1.08;;;;;;;14.69;49.83;99501.84;4461434;32;33711;-79
2022/05/29 04:49:43;;;;;;;3.23;0.83;;;;;;;14.99;49.59;99507.97;4460456;32;34612;-79
2022/05/29 04:52:29;;;;;;;3.42;0.68;;;;;;;15.02;50.57;99510.03;4462679;32;35002;-79
2022/05/29 04:55:20;;;;;;;2.30;0.88;;;;;;;14.78;52.27;99508.84;4462819;32;35456;-79
2022/05/29 04:58:10;;;;;;;1.58;0.65;;;;;;;14.35;50.80;99506.53;4458410;32;35048;-79
2022/05/29 05:01:01;;;;;;;2.83;0.60;;;;;;;14.89;49.75;99502.91;4459536;32;34291;-79
2022/05/29 05:03:48;;;;;;;1.70;0.57;;;;;;;14.89;48.48;99516.69;4461474;32;35048;-79
2022/05/29 05:06:35;;;;;;;2.47;0.95;;;;;;;14.42;48.74;99509.53;4459348;32;34702;-79
2022/05/29 05:09:26;;;;;;;3.70;0.65;;;;;;;14.03;48.43;99508.09;4459331;32;34135;-79
2022/05/29 05:12:14;;;;;;;3.72;1.00;;;;;;;13.66;50.04;99507.91;4462424;32;34492;-79
2022/05/29 05:15:03;;;;;;;3.05;0.73;;;;;;;14.08;50.34;99507.91;4461199;32;35973;-79
2022/05/29 05:17:51;;;;;;;2.60;0.80;;;;;;;14.53;49.96;99516.25;4459734;32;34568;-79
2022/05/29 05:20:38;;;;;;;3.92;1.00;;;;;;;14.07;50.60;99518.13;4462609;32;34071;-79
2022/05/29 05:23:27;;;;;;;4.78;1.00;;;;;;;14.56;50.98;99514.78;4448947;32;34134;-79
2022/05/29 05:26:15;;;;;;;6.05;1.48;;;;;;;14.77;49.26;99507.25;4455288;32;34989;-79
2022/05/29 05:29:03;;;;;;;4.87;1.20;;;;;;;14.47;50.43;99508.53;4463408;32;34108;-78
2022/05/29 05:31:50;;;;;;;4.50;1.27;;;;;;;14.63;50.51;99506.75;4462281;32;34125;-79
2022/05/29 05:34:40;;;;;;;3.62;1.12;;;;;;;15.05;48.36;99512.09;4458503;32;34085;-79
2022/05/29 05:37:28;;;;;;;3.75;1.12;;;;;;;15.22;48.17;99502.78;4451210;32;35058;-79
2022/05/29 05:40:16;;;;;;;2.30;1.05;;;;;;;15.31;48.49;99503.47;4461818;32;34612;-79
2022/05/29 05:43:05;;;;;;;4.03;1.00;;;;;;;15.37;48.98;99504.03;4463897;32;34007;-79
2022/05/29 05:45:56;;;;;;;3.83;1.02;;;;;;;14.75;48.96;99501.25;4455029;32;37624;-79
2022/05/29 05:48:43;;;;;;;2.33;1.12;;;;;;;14.84;49.33;99499.19;4458159;32;34606;-79
2022/05/29 05:51:31;;;;;;;3.20;1.05;;;;;;;15.13;47.95;99502.91;4461465;32;35410;-79
2022/05/29 05:54:22;;;;;;;2.58;0.90;;;;;;;15.08;47.76;99500.38;4460377;32;33757;-79
2022/05/29 05:57:10;;;;;;;4.07;0.88;;;;;;;15.00;48.60;99496.59;4457289;32;36189;-79
2022/05/29 06:00:00;;;;;;;4.18;1.05;;;;;;;14.89;47.76;99497.37;4443430;32;35107;-79
2022/05/29 06:02:58;;;;;;;2.85;0.85;;;;;;;14.95;46.12;99496.81;4461878;32;34126;-79
2022/05/29 06:05:55;;;;;;;4.10;0.85;;;;;;;15.51;44.97;99490.69;4457985;32;33821;-79
2022/05/29 06:08:57;;;;;;;2.40;0.80;;;;;;;15.88;43.98;99494.22;4449293;32;34451;-79
2022/05/29 06:11:53;;;;;;;3.50;0.70;;;;;;;15.86;41.42;99482.72;4458261;32;34772;-79
2022/05/29 06:14:41;;;;;;;2.67;0.70;;;;;;;15.87;43.89;99484.31;4468657;32;34535;-79
2022/05/29 06:17:28;;;;;;;2.80;0.68;;;;;;;16.26;41.72;99486.59;4460907;32;34108;-79
2022/05/29 06:20:15;;;;;;;1.20;0.62;;;;;;;16.88;42.33;99479.56;4456106;32;34644;-79
2022/05/29 06:26:07;;;;;;;3.45;0.70;;;;;;;16.28;39.47;99489.78;4459303;32;34665;-79
2022/05/29 06:29:01;;;;;;;5.05;0.85;;;;;;;15.82;39.82;99483.75;4461830;32;35096;-79
2022/05/29 06:31:50;;;;;;;3.58;0.80;;;;;;;16.56;39.20;99490.59;4463578;32;34838;-79
2022/05/29 06:34:37;;;;;;;1.62;0.60;;;;;;;16.37;39.74;99487.69;4463981;32;34989;-80
2022/05/29 06:37:24;;;;;;;2.70;0.70;;;;;;;15.78;40.68;99493.91;4459361;32;34621;-79
2022/05/29 06:40:17;;;;;;;3.17;0.85;;;;;;;16.01;41.00;99486.69;4461769;32;34202;-79
2022/05/29 06:43:11;;;;;;;1.23;0.62;;;;;;;16.87;41.13;99494.53;4460273;32;34740;-79
2022/05/29 06:46:23;;;;;;;4.95;0.98;;;;;;;16.96;40.86;99491.59;4458364;32;34946;-77
2022/05/29 06:49:17;;;;;;;1.42;0.68;;;;;;;17.00;40.56;99482.25;4460558;32;34555;-76
2022/05/29 06:52:10;;;;;;;3.40;0.62;;;;;;;17.11;40.17;99484.47;4455728;32;34967;-76
2022/05/29 06:54:59;;;;;;;1.67;0.73;;;;;;;16.89;40.14;99478.41;4443130;32;34245;-76
2022/05/29 06:57:48;;;;;;;4.37;0.90;;;;;;;16.75;40.74;99486.31;4462709;32;34974;-76
2022/05/29 07:07:37;;;;;;;3.17;0.80;;;;;;;17.89;39.05;99488.25;4459750;32;34330;-76
2022/05/29 07:13:23;;;;;;;2.10;0.82;;;;;;;17.73;36.72;99480.75;4461942;32;35350;-76
2022/05/29 07:16:15;;;;;;;1.35;0.60;;;;;;;18.08;35.83;99476.38;4457013;32;36313;-75
2022/05/29 07:19:07;;;;;;;1.62;0.65;;;;;;;18.03;34.56;99474.69;4458749;32;36008;-75
2022/05/29 07:25:00;;;;;;;3.90;0.60;;;;;;;17.89;36.58;99475.19;4457446;32;34708;-75
2022/05/29 07:27:50;;;;;;;2.85;0.50;;;;;;;18.19;36.02;99474.59;4455570;32;33760;-75
2022/05/29 07:30:48;;;;;;;2.30;0.52;;;;;;;18.23;37.24;99478.25;4459755;32;35136;-75
2022/05/29 07:33:38;;;;;;;1.40;0.60;;;;;;;18.41;35.97;99470.25;4453418;32;35575;-76
2022/05/29 07:36:26;;;;;;;4.25;0.77;;;;;;;18.35;36.56;99472.53;4455605;32;34560;-76
2022/05/29 07:39:14;;;;;;;2.78;0.68;;;;;;;18.46;36.18;99477.47;4457004;32;35096;-76
2022/05/29 07:48:29;;;;;;;1.00;0.45;;;;;;;18.63;36.34;99465.91;4457382;32;36010;-75
2022/05/29 07:54:15;;;;;;;2.97;0.62;;;;;;;18.27;36.07;99461.66;4459315;32;34181;-75
2022/05/29 07:57:15;;;;;;;1.55;0.57;;;;;;;18.17;35.21;99455.56;4455717;32;34615;-75
2022/05/29 08:00:05;;;;;;;2.00;0.45;;;;;;;18.03;35.72;99454.47;4449812;32;33310;-75
2022/05/29 08:03:04;;;;;;;2.08;0.70;;;;;;;18.53;35.74;99455.44;4457539;32;34014;-75
2022/05/29 08:06:02;;;;;;;1.48;0.52;;;;;;;18.11;37.39;99456.22;4444110;32;34055;-75
2022/05/29 08:08:58;;;;;;;2.05;0.57;;;;;;;18.14;35.30;99455.50;4446175;32;34466;-75
2022/05/29 08:11:53;;;;;;;2.35;0.70;;;;;;;17.95;35.95;99448.78;4454031;32;34989;-78
2022/05/29 08:14:42;;;;;;;1.52;0.60;;;;;;;18.29;36.66;99453.78;4458513;32;34842;-76
2022/05/29 08:17:32;;;;;;;1.98;0.50;;;;;;;18.65;35.94;99447.72;4459195;32;34482;-77
2022/05/29 08:20:23;;;;;;;4.97;0.68;;;;;;;18.64;36.82;99446.13;4458519;32;34027;-77
2022/05/29 08:23:12;;;;;;;1.62;0.60;;;;;;;18.76;35.62;99441.59;4460391;32;35344;-74
2022/05/29 08:38:20;;;;;;;7.78;0.90;;;;;;;19.42;34.89;99439.44;4457104;32;35103;-75
2022/05/29 08:41:17;;;;;;;2.20;0.60;;;;;;;19.49;33.56;99436.75;4458167;32;34142;-76
2022/05/29 08:47:07;;;;;;;1.77;0.60;;;;;;;18.30;36.25;99431.25;4455667;32;35358;-75
2022/05/29 08:50:02;;;;;;;1.10;0.50;;;;;;;19.10;36.00;99431.44;4450683;32;35125;-76
2022/05/29 08:52:59;;;;;;;8.40;1.73;;;;;;;19.36;35.63;99430.63;4459979;32;34128;-75
2022/05/29 08:55:57;;;;;;;3.05;0.77;;;;;;;19.60;35.14;99423.78;4458681;32;35570;-75
2022/05/29 08:58:57;;;;;;;1.60;0.50;;;;;;;19.07;35.10;99419.09;4456361;32;35032;-75
2022/05/29 09:02:43;;;;;;;2.28;0.60;;;;;;;19.75;34.96;99422.84;4460629;32;34676;-75
2022/05/29 09:05:36;;;;;;;2.95;0.65;;;;;;;19.75;33.41;99420.06;4400742;32;35565;-76
2022/05/29 09:08:34;;;;;;;2.45;0.50;;;;;;;19.79;31.46;99419.31;4458553;32;34955;-75
2022/05/29 09:14:51;;;;;;;2.30;0.80;;;;;;;19.43;32.92;99421.56;4460518;32;33620;-75
2022/05/29 09:17:46;;;;;;;3.92;0.90;;;;;;;19.59;32.56;99419.41;4458262;32;34628;-75
2022/05/29 09:20:42;;;;;;;4.03;0.60;;;;;;;19.27;33.90;99419.78;4455110;32;36788;-75
2022/05/29 09:23:34;;;;;;;3.58;0.90;;;;;;;19.33;33.28;99414.72;4457463;32;35468;-75
2022/05/29 09:26:22;;;;;;;1.58;0.40;;;;;;;19.53;32.87;99412.59;4460230;32;35086;-75
2022/05/29 09:29:11;;;;;;;2.50;0.90;;;;;;;19.85;31.94;99415.00;4447099;32;34771;-76
2022/05/29 09:35:03;;;;;;;2.80;0.70;;;;;;;19.81;34.36;99401.06;4460976;32;35382;-75
2022/05/29 09:38:12;;;;;;;4.12;0.73;;;;;;;19.69;33.07;99406.84;4459675;32;34548;-75
2022/05/29 09:41:08;;;;;;;6.93;0.90;;;;;;;19.10;33.64;99406.44;4468080;32;34713;-75
2022/05/29 09:44:04;;;;;;;2.60;0.68;;;;;;;19.87;33.19;99398.75;4473269;32;36405;-75
2022/05/29 09:50:11;;;;;;;2.80;0.70;;;;;;;19.80;32.32;99396.69;4461468;32;34165;-76
2022/05/29 09:53:09;;;;;;;2.10;0.55;;;;;;;19.92;31.86;99398.41;4460337;32;35532;-76
2022/05/29 09:56:07;;;;;;;2.17;0.52;;;;;;;19.76;30.70;99388.31;4462990;32;34973;-76
2022/05/29 09:59:01;;;;;;;1.90;0.60;;;;;;;20.08;32.22;99387.06;4459543;32;35385;-75
2022/05/29 10:02:01;;;;;;;2.20;0.68;;;;;;;20.22;31.26;99388.00;4462619;32;34091;-76
2022/05/29 10:07:58;;;;;;;2.60;0.57;;;;;;;20.38;30.50;99386.97;4463117;32;33644;-75
2022/05/29 10:10:46;;;;;;;1.70;0.60;;;;;;;19.77;31.72;99376.00;4462669;32;35366;-76
2022/05/29 10:13:37;;;;;;;1.33;0.50;;;;;;;20.53;31.27;99383.16;4460065;32;34143;-76
2022/05/29 10:16:42;;;;;;;1.62;0.52;;;;;;;20.26;32.76;99376.91;4460747;32;34363;-76
2022/05/29 10:19:39;;;;;;;2.50;0.98;;;;;;;20.42;30.67;99376.66;4462472;32;35031;-76
2022/05/29 10:22:33;;;;;;;2.05;0.55;;;;;;;19.76;31.72;99370.81;4461888;32;34072;-76
2022/05/29 10:25:29;;;;;;;3.42;0.50;;;;;;;20.22;33.16;99376.87;4462844;32;34077;-75
2022/05/29 10:28:35;;;;;;;2.90;0.90;;;;;;;20.17;31.68;99373.66;4459794;32;34490;-75
2022/05/29 10:31:32;;;;;;;2.53;0.60;;;;;;;20.08;31.95;99370.38;4459461;32;34910;-76
2022/05/29 10:37:27;;;;;;;3.70;0.55;;;;;;;19.76;32.20;99371.62;4464603;32;34155;-75
2022/05/29 10:40:25;;;;;;;2.25;0.60;;;;;;;19.68;33.19;99369.94;4463122;32;35620;-76
2022/05/29 10:47:03;;;;;;;1.42;0.43;;;;;;;19.71;34.16;99357.25;4462835;32;35488;-76
2022/05/29 10:50:25;;;;;;;2.87;0.68;;;;;;;19.31;33.61;99361.50;4456831;32;35070;-76
2022/05/29 10:53:40;;;;;;;2.53;0.65;;;;;;;19.46;32.76;99368.03;4454796;32;34363;-77
2022/05/29 10:56:57;;;;;;;2.42;0.55;;;;;;;19.36;31.05;99368.72;4460176;32;34685;-77
2022/05/29 10:59:59;;;;;;;2.20;0.70;;;;;;;19.29;32.27;99363.84;4461729;32;34061;-77
2022/05/29 11:03:21;;;;;;;3.10;0.50;;;;;;;19.07;32.96;99360.00;4464299;32;34709;-76
2022/05/29 11:06:41;;;;;;;1.90;0.75;;;;;;;19.55;32.51;99357.44;4461480;32;34280;-76
2022/05/29 11:09:51;;;;;;;4.30;1.27;;;;;;;19.51;34.13;99353.81;4459463;32;34987;-77
2022/05/29 11:13:03;;;;;;;4.28;0.70;;;;;;;19.72;34.17;99351.34;4463352;32;35514;-76
2022/05/29 11:16:09;;;;;;;5.18;0.73;;;;;;;19.71;34.40;99358.06;4462352;32;34655;-77
2022/05/29 11:19:22;;;;;;;2.35;0.70;;;;;;;20.05;34.18;99360.81;4460455;32;34475;-76
2022/05/29 11:22:36;;;;;;;2.78;0.65;;;;;;;20.32;33.00;99346.75;4421843;32;34863;-76
2022/05/29 11:28:46;;;;;;;4.28;1.50;;;;;;;20.02;33.04;99344.09;4448516;32;34194;-76
2022/05/29 11:31:40;;;;;;;5.12;1.55;;;;;;;20.15;33.35;99331.50;4443629;32;33495;-76
2022/05/29 11:34:36;;;;;;;2.80;0.90;;;;;;;20.30;34.54;99338.81;4449804;32;35056;-76
2022/05/29 11:38:09;;;;;;;3.75;1.20;;;;;;;19.88;34.24;99334.41;4453103;32;34255;-76
2022/05/29 11:44:19;;;;;;;2.47;1.00;;;;;;;20.25;32.83;99325.25;4438415;32;34184;-76
2022/05/29 11:51:15;;;;;;;2.10;0.62;;;;;;;20.77;32.01;99334.44;4444200;32;34652;-77
2022/05/29 11:54:20;;;;;;;3.03;0.75;;;;;;;20.45;31.85;99329.38;4449110;32;33134;-76
2022/05/29 11:57:26;;;;;;;2.55;0.70;;;;;;;20.35;32.66;99321.78;4441446;32;36150;-76
2022/05/29 12:00:58;;;;;;;2.58;0.60;;;;;;;20.40;32.65;99320.59;4451142;32;34981;-76
2022/05/29 12:03:57;;;;;;;4.45;0.90;;;;;;;20.35;31.94;99320.94;4437809;32;34588;-76
2022/05/29 12:06:56;;;;;;;4.95;0.70;;;;;;;20.48;32.93;99322.25;4447541;32;35014;-77
2022/05/29 12:10:09;;;;;;;3.15;0.60;;;;;;;20.53;32.27;99312.78;4443391;32;35305;-76
2022/05/29 12:13:07;;;;;;;2.47;0.70;;;;;;;20.18;33.25;99306.53;4447453;32;35037;-76
2022/05/29 12:22:11;;;;;;;5.07;0.80;;;;;;;20.45;31.79;99307.13;4467760;32;34239;-76
2022/05/29 12:25:29;;;;;;;2.75;0.68;;;;;;;20.47;32.85;99303.97;4464240;32;33849;-76
2022/05/29 12:28:27;;;;;;;3.70;1.10;;;;;;;19.84;34.20;99303.00;4466021;31;34557;-77
2022/05/29 12:31:29;;;;;;;2.83;1.30;;;;;;;20.25;33.73;99302.19;4466262;32;33968;-76
2022/05/29 12:34:27;;;;;;;2.65;1.00;;;;;;;20.45;32.55;99306.34;4477682;31;34555;-76
2022/05/29 12:37:38;;;;;;;3.60;0.90;;;;;;;20.15;34.62;99310.06;4455037;31;34486;-76
2022/05/29 12:40:46;;;;;;;4.80;1.05;;;;;;;20.74;33.28;99307.37;4459041;32;34537;-76
2022/05/29 12:43:54;;;;;;;4.28;1.17;;;;;;;19.73;32.34;99308.44;4479276;32;34292;-76
2022/05/29 12:47:03;;;;;;;3.80;0.70;;;;;;;19.38;33.96;99308.00;4473816;31;34302;-76
2022/05/29 12:50:10;;;;;;;1.92;0.50;;;;;;;20.28;33.86;99301.44;4472275;31;34726;-76
2022/05/29 12:53:20;;;;;;;2.05;0.93;;;;;;;20.04;34.75;99302.81;4473755;31;34619;-76
2022/05/29 12:56:34;;;;;;;2.12;0.75;;;;;;;20.63;32.16;99300.91;4472266;32;35023;-75
2022/05/29 12:59:48;;;;;;;2.70;0.65;;;;;;;20.36;32.77;99308.66;4464274;32;34581;-75
2022/05/29 13:03:04;;;;;;;3.80;0.85;;;;;;;20.00;34.06;99302.75;4476143;31;35993;-76
2022/05/29 13:06:21;;;;;;;2.47;0.68;;;;;;;19.52;34.36;99303.44;4463810;31;34713;-76
2022/05/29 13:09:16;;;;;;;4.05;0.60;;;;;;;19.70;34.26;99306.44;4466359;32;34194;-76
2022/05/29 13:15:13;;;;;;;1.30;0.70;;;;;;;19.81;33.65;99314.91;4469813;32;34980;-76
2022/05/29 13:21:27;;;;;;;4.22;0.70;;;;;;;20.08;33.60;99304.44;4459690;32;35040;-76
2022/05/29 13:24:28;;;;;;;2.78;0.60;;;;;;;19.72;33.43;99315.19;4467959;32;34685;-76
2022/05/29 13:27:24;;;;;;;4.55;0.70;;;;;;;19.56;32.95;99311.81;4458609;32;35941;-76
2022/05/29 13:30:38;;;;;;;2.30;0.43;;;;;;;19.40;34.53;99308.44;4479068;32;34583;-76
2022/05/29 13:33:29;;;;;;;1.75;0.50;;;;;;;19.68;34.30;99305.22;4481790;31;32313;-75
2022/05/29 13:36:43;;;;;;;1.55;0.70;;;;;;;19.52;32.89;99299.84;4468367;31;34209;-76
2022/05/29 13:39:53;;;;;;;2.72;0.90;;;;;;;19.60;32.92;99301.50;4480159;32;33902;-76
2022/05/29 13:42:48;;;;;;;6.28;0.95;;;;;;;19.46;33.17;99291.03;4467104;32;35416;-75
2022/05/29 13:46:04;;;;;;;3.53;0.73;;;;;;;19.57;32.62;99285.59;4464960;32;34108;-76
2022/05/29 13:49:07;;;;;;;0.62;0.40;;;;;;;19.41;34.38;99287.78;4477419;31;35626;-76
2022/05/29 13:52:06;;;;;;;4.05;0.70;;;;;;;19.72;33.51;99276.28;4457733;32;35572;-76
2022/05/29 13:55:13;;;;;;;2.78;0.62;;;;;;;19.63;33.22;99278.53;4478670;31;35090;-76
2022/05/29 14:04:30;;;;;;;1.40;0.60;;;;;;;19.79;31.44;99266.41;4467244;32;35145;-76
2022/05/29 14:07:26;;;;;;;2.25;0.55;;;;;;;19.44;32.69;99265.62;4479679;31;33772;-76
2022/05/29 14:13:33;;;;;;;3.37;0.57;;;;;;;19.29;31.66;99261.87;4477592;31;32721;-76
2022/05/29 14:16:29;;;;;;;2.62;0.68;;;;;;;19.07;32.35;99260.81;4479223;31;35080;-76
2022/05/29 14:19:48;;;;;;;5.62;0.60;;;;;;;18.98;32.40;99259.50;4466967;32;34184;-76
2022/05/29 14:23:24;;;;;;;5.78;1.90;;;;;;;18.95;32.04;99255.50;4476637;32;34232;-76
2022/05/29 14:30:02;;;;;;;2.33;0.68;;;;;;;18.77;31.92;99263.59;4470480;32;35932;-76
2022/05/29 14:33:21;;;;;;;1.65;0.50;;;;;;;19.26;32.28;99261.81;4464634;32;35459;-76
2022/05/29 14:36:15;;;;;;;2.65;0.60;;;;;;;19.25;32.87;99274.91;4479545;32;33929;-76
2022/05/29 14:39:27;;;;;;;0.98;0.52;;;;;;;19.05;32.70;99263.16;4477907;32;35192;-76
2022/05/29 14:42:21;;;;;;;0.88;0.60;;;;;;;19.00;32.55;99263.50;4478640;31;36539;-76
2022/05/29 14:45:29;;;;;;;2.15;0.55;;;;;;;19.08;32.00;99264.38;4479622;32;35483;-76
2022/05/29 14:48:29;;;;;;;1.80;0.60;;;;;;;19.10;32.30;99262.84;4463488;32;34052;-75
2022/05/29 14:54:32;;;;;;;2.45;0.50;;;;;;;19.03;34.83;99261.94;4467751;32;35987;-75
2022/05/29 14:57:27;;;;;;;3.30;1.27;;;;;;;18.98;35.70;99265.03;4465457;31;35034;-76
2022/05/29 15:00:27;;;;;;;0.60;0.32;;;;;;;18.99;36.32;99263.88;4467197;32;35076;-75
2022/05/29 15:03:27;;;;;;;2.55;0.80;;;;;;;19.16;34.30;99268.06;4463680;32;35112;-75
2022/05/29 15:10:30;;;;;;;1.12;0.70;;;;;;;18.55;36.29;99258.88;4467367;32;34427;-75
2022/05/29 15:15:55;;;;;;;5.03;0.70;;;;;;;16.34;49.04;99261.69;4451477;32;35073;-76
2022/05/29 15:18:44;;;;;;;2.92;0.73;;;;;;;16.38;50.92;99268.09;4432173;32;35054;-75
2022/05/29 15:25:28;;;;;;;3.40;0.73;;;;;;;15.76;51.36;99266.94;4441028;32;34093;-76
2022/05/29 15:28:19;;;;;;;2.30;0.95;;;;;;;15.55;54.83;99267.16;4442862;32;34194;-76
2022/05/29 15:31:29;;;;;;;2.00;1.35;;;;;;;15.35;52.30;99261.47;4443928;32;34973;-76
2022/05/29 15:34:46;;;;;;;1.48;0.50;;;;;;;15.46;56.84;99267.31;4449504;32;34050;-75
2022/05/29 15:37:43;;;;;;;3.03;1.12;;;;;;;14.59;58.01;99263.19;4446978;32;34753;-75
2022/05/29 15:40:44;;;;;;;4.60;0.93;;;;;;;14.36;60.21;99263.63;4441684;32;34658;-75
2022/05/29 15:47:29;;;;;;;4.78;1.50;;;;;;;14.59;60.93;99272.25;4435512;32;34602;-74
2022/05/29 15:50:38;;;;;;;4.80;1.30;;;;;;;13.94;66.54;99265.81;4444878;32;33900;-73
2022/05/29 15:54:05;;;;;;;6.60;1.33;;;;;;;13.13;73.54;99276.31;4442574;32;35548;-73